sensor_id;sensor_type;location;lat;lon;timestamp;P1;durP1;ratioP1;P2;durP2;ratioP2
3487;SDS011;38546;48.170;11.724;2024-02-23T00:02:14;0.60;;;0.60;;
3487;SDS011;38546;48.170;11.724;2024-02-23T00:04:44;0.60;;;0.60;;
3487;SDS011;38546;48.170;11.724;2024-02-23T00:07:15;0.50;;;0.50;;
3487;SDS011;38546;48.170;11.724;2024-02-23T00:09:46;1.50;;;1.50;;
3487;SDS011;38546;48.170;11.724;2024-02-23T00:12:16;0.53;;;0.53;;
3487;SDS011;38546;48.170;11.724;2024-02-23T00:14:47;1.17;;;0.53;;
3487;SDS011;38546;48.170;11.724;2024-02-23T00:17:18;0.53;;;0.53;;
3487;SDS011;38546;48.170;11.724;2024-02-23T00:19:48;0.40;;;0.40;;
3487;SDS011;38546;48.170;11.724;2024-02-23T00:22:19;0.50;;;0.50;;
3487;SDS011;38546;48.170;11.724;2024-02-23T00:24:50;0.40;;;0.40;;
3487;SDS011;38546;48.170;11.724;2024-02-23T00:27:20;0.60;;;0.60;;
3487;SDS011;38546;48.170;11.724;2024-02-23T00:29:51;0.40;;;0.40;;
3487;SDS011;38546;48.170;11.724;2024-02-23T00:32:21;0.60;;;0.60;;
3487;SDS011;38546;48.170;11.724;2024-02-23T00:34:52;0.50;;;0.50;;
3487;SDS011;38546;48.170;11.724;2024-02-23T00:37:23;0.53;;;0.53;;
3487;SDS011;38546;48.170;11.724;2024-02-23T00:39:54;0.40;;;0.40;;
3487;SDS011;38546;48.170;11.724;2024-02-23T00:42:24;0.50;;;0.50;;
3487;SDS011;38546;48.170;11.724;2024-02-23T00:44:55;0.50;;;0.50;;
3487;SDS011;38546;48.170;11.724;2024-02-23T00:47:26;0.47;;;0.47;;
3487;SDS011;38546;48.170;11.724;2024-02-23T00:49:58;0.60;;;0.60;;
3487;SDS011;38546;48.170;11.724;2024-02-23T00:52:28;0.40;;;0.40;;
3487;SDS011;38546;48.170;11.724;2024-02-23T00:54:59;1.40;;;0.40;;
3487;SDS011;38546;48.170;11.724;2024-02-23T00:57:30;0.53;;;0.50;;
3487;SDS011;38546;48.170;11.724;2024-02-23T01:00:01;0.40;;;0.40;;
3487;SDS011;38546;48.170;11.724;2024-02-23T01:02:35;0.50;;;0.50;;
3487;SDS011;38546;48.170;11.724;2024-02-23T01:05:06;1.27;;;0.40;;
3487;SDS011;38546;48.170;11.724;2024-02-23T01:07:39;0.50;;;0.50;;
3487;SDS011;38546;48.170;11.724;2024-02-23T01:10:09;0.40;;;0.40;;
3487;SDS011;38546;48.170;11.724;2024-02-23T01:12:40;0.40;;;0.40;;
3487;SDS011;38546;48.170;11.724;2024-02-23T01:15:11;0.90;;;0.50;;
3487;SDS011;38546;48.170;11.724;2024-02-23T01:17:41;0.50;;;0.50;;
3487;SDS011;38546;48.170;11.724;2024-02-23T01:20:12;0.40;;;0.40;;
3487;SDS011;38546;48.170;11.724;2024-02-23T01:22:43;0.67;;;0.50;;
3487;SDS011;38546;48.170;11.724;2024-02-23T01:25:14;0.40;;;0.40;;
3487;SDS011;38546;48.170;11.724;2024-02-23T01:27:45;0.53;;;0.50;;
3487;SDS011;38546;48.170;11.724;2024-02-23T01:30:16;0.50;;;0.40;;
3487;SDS011;38546;48.170;11.724;2024-02-23T01:32:47;1.47;;;0.50;;
3487;SDS011;38546;48.170;11.724;2024-02-23T01:35:18;0.50;;;0.50;;
3487;SDS011;38546;48.170;11.724;2024-02-23T01:37:49;0.57;;;0.57;;
3487;SDS011;38546;48.170;11.724;2024-02-23T01:40:20;0.40;;;0.40;;
3487;SDS011;38546;48.170;11.724;2024-02-23T01:43:00;0.50;;;0.50;;
3487;SDS011;38546;48.170;11.724;2024-02-23T01:45:34;0.50;;;0.50;;
3487;SDS011;38546;48.170;11.724;2024-02-23T01:48:05;0.43;;;0.43;;
3487;SDS011;38546;48.170;11.724;2024-02-23T01:50:37;0.73;;;0.60;;
3487;SDS011;38546;48.170;11.724;2024-02-23T01:53:09;0.50;;;0.50;;
3487;SDS011;38546;48.170;11.724;2024-02-23T01:55:42;0.50;;;0.50;;
3487;SDS011;38546;48.170;11.724;2024-02-23T01:58:17;1.03;;;0.53;;
3487;SDS011;38546;48.170;11.724;2024-02-23T02:00:48;0.50;;;0.50;;
3487;SDS011;38546;48.170;11.724;2024-02-23T02:03:19;0.47;;;0.47;;
3487;SDS011;38546;48.170;11.724;2024-02-23T02:05:49;0.80;;;0.40;;
3487;SDS011;38546;48.170;11.724;2024-02-23T02:08:22;0.40;;;0.40;;
3487;SDS011;38546;48.170;11.724;2024-02-23T02:10:54;0.40;;;0.40;;
3487;SDS011;38546;48.170;11.724;2024-02-23T02:13:24;0.40;;;0.40;;
3487;SDS011;38546;48.170;11.724;2024-02-23T02:15:56;0.40;;;0.40;;
3487;SDS011;38546;48.170;11.724;2024-02-23T02:18:31;0.40;;;0.40;;
3487;SDS011;38546;48.170;11.724;2024-02-23T02:21:01;0.40;;;0.40;;
3487;SDS011;38546;48.170;11.724;2024-02-23T02:23:32;0.50;;;0.50;;
3487;SDS011;38546;48.170;11.724;2024-02-23T02:26:03;0.63;;;0.63;;
3487;SDS011;38546;48.170;11.724;2024-02-23T02:28:34;0.50;;;0.47;;
3487;SDS011;38546;48.170;11.724;2024-02-23T02:31:04;0.40;;;0.40;;
3487;SDS011;38546;48.170;11.724;2024-02-23T02:33:35;0.40;;;0.40;;
3487;SDS011;38546;48.170;11.724;2024-02-23T02:36:06;0.40;;;0.40;;
3487;SDS011;38546;48.170;11.724;2024-02-23T02:38:37;0.50;;;0.43;;
3487;SDS011;38546;48.170;11.724;2024-02-23T02:41:08;0.33;;;0.33;;
3487;SDS011;38546;48.170;11.724;2024-02-23T02:43:39;0.43;;;0.43;;
3487;SDS011;38546;48.170;11.724;2024-02-23T02:46:10;0.50;;;0.50;;
3487;SDS011;38546;48.170;11.724;2024-02-23T02:48:40;0.40;;;0.40;;
3487;SDS011;38546;48.170;11.724;2024-02-23T02:51:11;0.40;;;0.40;;
3487;SDS011;38546;48.170;11.724;2024-02-23T02:53:41;0.40;;;0.40;;
3487;SDS011;38546;48.170;11.724;2024-02-23T02:56:12;2.40;;;0.47;;
3487;SDS011;38546;48.170;11.724;2024-02-23T02:58:43;0.50;;;0.50;;
3487;SDS011;38546;48.170;11.724;2024-02-23T03:01:13;1.57;;;0.73;;
3487;SDS011;38546;48.170;11.724;2024-02-23T03:03:44;0.50;;;0.50;;
3487;SDS011;38546;48.170;11.724;2024-02-23T03:06:15;0.50;;;0.50;;
3487;SDS011;38546;48.170;11.724;2024-02-23T03:08:45;0.50;;;0.50;;
3487;SDS011;38546;48.170;11.724;2024-02-23T03:11:16;0.53;;;0.53;;
3487;SDS011;38546;48.170;11.724;2024-02-23T03:13:46;0.50;;;0.50;;
3487;SDS011;38546;48.170;11.724;2024-02-23T03:16:33;0.40;;;0.40;;
3487;SDS011;38546;48.170;11.724;2024-02-23T03:19:04;0.40;;;0.40;;
3487;SDS011;38546;48.170;11.724;2024-02-23T03:21:35;1.30;;;0.57;;
3487;SDS011;38546;48.170;11.724;2024-02-23T03:24:05;0.60;;;0.60;;
3487;SDS011;38546;48.170;11.724;2024-02-23T03:26:36;0.40;;;0.40;;
3487;SDS011;38546;48.170;11.724;2024-02-23T03:29:07;0.40;;;0.40;;
3487;SDS011;38546;48.170;11.724;2024-02-23T03:31:37;2.83;;;0.70;;
3487;SDS011;38546;48.170;11.724;2024-02-23T03:34:08;0.50;;;0.50;;
3487;SDS011;38546;48.170;11.724;2024-02-23T03:36:39;0.77;;;0.70;;
3487;SDS011;38546;48.170;11.724;2024-02-23T03:39:09;2.00;;;0.60;;
3487;SDS011;38546;48.170;11.724;2024-02-23T03:41:40;0.63;;;0.63;;
3487;SDS011;38546;48.170;11.724;2024-02-23T03:44:11;0.60;;;0.60;;
3487;SDS011;38546;48.170;11.724;2024-02-23T03:46:41;0.53;;;0.53;;
3487;SDS011;38546;48.170;11.724;2024-02-23T03:49:17;0.60;;;0.60;;
3487;SDS011;38546;48.170;11.724;2024-02-23T03:51:47;0.60;;;0.60;;
3487;SDS011;38546;48.170;11.724;2024-02-23T03:54:18;0.60;;;0.60;;
3487;SDS011;38546;48.170;11.724;2024-02-23T03:56:49;0.50;;;0.50;;
3487;SDS011;38546;48.170;11.724;2024-02-23T03:59:19;0.60;;;0.60;;
3487;SDS011;38546;48.170;11.724;2024-02-23T04:01:50;0.70;;;0.70;;
3487;SDS011;38546;48.170;11.724;2024-02-23T04:04:21;0.50;;;0.50;;
3487;SDS011;38546;48.170;11.724;2024-02-23T04:06:51;0.60;;;0.60;;
3487;SDS011;38546;48.170;11.724;2024-02-23T04:09:22;0.70;;;0.70;;
3487;SDS011;38546;48.170;11.724;2024-02-23T04:11:53;0.70;;;0.70;;
3487;SDS011;38546;48.170;11.724;2024-02-23T04:14:23;0.70;;;0.70;;
3487;SDS011;38546;48.170;11.724;2024-02-23T04:16:54;1.43;;;0.70;;
3487;SDS011;38546;48.170;11.724;2024-02-23T04:19:25;0.50;;;0.50;;
3487;SDS011;38546;48.170;11.724;2024-02-23T04:21:55;0.60;;;0.60;;
3487;SDS011;38546;48.170;11.724;2024-02-23T04:24:26;0.53;;;0.53;;
3487;SDS011;38546;48.170;11.724;2024-02-23T04:26:57;0.60;;;0.60;;
3487;SDS011;38546;48.170;11.724;2024-02-23T04:29:27;0.80;;;0.80;;
3487;SDS011;38546;48.170;11.724;2024-02-23T04:31:59;0.70;;;0.70;;
3487;SDS011;38546;48.170;11.724;2024-02-23T04:34:31;0.60;;;0.60;;
3487;SDS011;38546;48.170;11.724;2024-02-23T04:37:01;1.07;;;0.80;;
3487;SDS011;38546;48.170;11.724;2024-02-23T04:39:32;0.77;;;0.77;;
3487;SDS011;38546;48.170;11.724;2024-02-23T04:42:04;0.80;;;0.80;;
3487;SDS011;38546;48.170;11.724;2024-02-23T04:44:35;1.77;;;0.73;;
3487;SDS011;38546;48.170;11.724;2024-02-23T04:47:06;0.67;;;0.67;;
3487;SDS011;38546;48.170;11.724;2024-02-23T04:49:36;0.90;;;0.90;;
3487;SDS011;38546;48.170;11.724;2024-02-23T04:52:07;0.70;;;0.70;;
3487;SDS011;38546;48.170;11.724;2024-02-23T04:54:38;1.60;;;0.60;;
3487;SDS011;38546;48.170;11.724;2024-02-23T04:57:09;1.50;;;1.23;;
3487;SDS011;38546;48.170;11.724;2024-02-23T04:59:40;2.63;;;0.73;;
3487;SDS011;38546;48.170;11.724;2024-02-23T05:02:10;0.63;;;0.63;;
3487;SDS011;38546;48.170;11.724;2024-02-23T05:04:41;0.80;;;0.80;;
3487;SDS011;38546;48.170;11.724;2024-02-23T05:07:12;1.80;;;0.70;;
3487;SDS011;38546;48.170;11.724;2024-02-23T05:09:42;0.60;;;0.60;;
3487;SDS011;38546;48.170;11.724;2024-02-23T05:12:13;0.60;;;0.60;;
3487;SDS011;38546;48.170;11.724;2024-02-23T05:14:43;0.50;;;0.50;;
3487;SDS011;38546;48.170;11.724;2024-02-23T05:17:14;0.50;;;0.50;;
3487;SDS011;38546;48.170;11.724;2024-02-23T05:19:57;0.70;;;0.70;;
3487;SDS011;38546;48.170;11.724;2024-02-23T05:22:27;0.93;;;0.90;;
3487;SDS011;38546;48.170;11.724;2024-02-23T05:24:58;0.50;;;0.50;;
3487;SDS011;38546;48.170;11.724;2024-02-23T05:27:29;0.60;;;0.60;;
3487;SDS011;38546;48.170;11.724;2024-02-23T05:30:00;0.60;;;0.60;;
3487;SDS011;38546;48.170;11.724;2024-02-23T05:32:30;0.70;;;0.70;;
3487;SDS011;38546;48.170;11.724;2024-02-23T05:35:01;0.67;;;0.67;;
3487;SDS011;38546;48.170;11.724;2024-02-23T05:37:34;0.70;;;0.70;;
3487;SDS011;38546;48.170;11.724;2024-02-23T05:40:08;0.70;;;0.70;;
3487;SDS011;38546;48.170;11.724;2024-02-23T05:42:42;0.50;;;0.50;;
3487;SDS011;38546;48.170;11.724;2024-02-23T05:45:12;0.53;;;0.53;;
3487;SDS011;38546;48.170;11.724;2024-02-23T05:47:43;0.50;;;0.50;;
3487;SDS011;38546;48.170;11.724;2024-02-23T05:50:14;0.60;;;0.60;;
3487;SDS011;38546;48.170;11.724;2024-02-23T05:52:44;0.50;;;0.50;;
3487;SDS011;38546;48.170;11.724;2024-02-23T05:55:15;0.70;;;0.70;;
3487;SDS011;38546;48.170;11.724;2024-02-23T05:57:46;0.80;;;0.80;;
3487;SDS011;38546;48.170;11.724;2024-02-23T06:00:17;0.60;;;0.60;;
3487;SDS011;38546;48.170;11.724;2024-02-23T06:02:49;0.70;;;0.70;;
3487;SDS011;38546;48.170;11.724;2024-02-23T06:05:20;0.50;;;0.50;;
3487;SDS011;38546;48.170;11.724;2024-02-23T06:07:51;0.60;;;0.60;;
3487;SDS011;38546;48.170;11.724;2024-02-23T06:10:21;2.33;;;0.70;;
3487;SDS011;38546;48.170;11.724;2024-02-23T06:12:52;0.60;;;0.60;;
3487;SDS011;38546;48.170;11.724;2024-02-23T06:15:23;0.60;;;0.60;;
3487;SDS011;38546;48.170;11.724;2024-02-23T06:17:54;0.50;;;0.50;;
3487;SDS011;38546;48.170;11.724;2024-02-23T06:20:25;0.80;;;0.80;;
3487;SDS011;38546;48.170;11.724;2024-02-23T06:22:55;0.77;;;0.77;;
3487;SDS011;38546;48.170;11.724;2024-02-23T06:25:26;0.83;;;0.83;;
3487;SDS011;38546;48.170;11.724;2024-02-23T06:27:57;1.80;;;1.70;;
3487;SDS011;38546;48.170;11.724;2024-02-23T06:30:27;2.80;;;2.23;;
3487;SDS011;38546;48.170;11.724;2024-02-23T06:32:58;4.70;;;3.40;;
3487;SDS011;38546;48.170;11.724;2024-02-23T06:35:29;5.03;;;2.33;;
3487;SDS011;38546;48.170;11.724;2024-02-23T06:38:00;1.00;;;0.87;;
3487;SDS011;38546;48.170;11.724;2024-02-23T06:40:30;0.93;;;0.93;;
3487;SDS011;38546;48.170;11.724;2024-02-23T06:43:01;1.40;;;1.13;;
3487;SDS011;38546;48.170;11.724;2024-02-23T06:45:32;0.90;;;0.90;;
3487;SDS011;38546;48.170;11.724;2024-02-23T06:48:03;0.83;;;0.83;;
3487;SDS011;38546;48.170;11.724;2024-02-23T06:50:34;0.80;;;0.80;;
3487;SDS011;38546;48.170;11.724;2024-02-23T06:53:05;0.77;;;0.60;;
3487;SDS011;38546;48.170;11.724;2024-02-23T06:55:36;0.70;;;0.70;;
3487;SDS011;38546;48.170;11.724;2024-02-23T06:58:07;0.80;;;0.70;;
3487;SDS011;38546;48.170;11.724;2024-02-23T07:00:38;0.70;;;0.70;;
3487;SDS011;38546;48.170;11.724;2024-02-23T07:03:09;1.03;;;0.77;;
3487;SDS011;38546;48.170;11.724;2024-02-23T07:05:40;0.90;;;0.90;;
3487;SDS011;38546;48.170;11.724;2024-02-23T07:08:15;1.27;;;0.90;;
3487;SDS011;38546;48.170;11.724;2024-02-23T07:10:45;1.00;;;1.00;;
3487;SDS011;38546;48.170;11.724;2024-02-23T07:13:16;0.80;;;0.70;;
3487;SDS011;38546;48.170;11.724;2024-02-23T07:15:48;0.90;;;0.90;;
3487;SDS011;38546;48.170;11.724;2024-02-23T07:18:18;0.97;;;0.97;;
3487;SDS011;38546;48.170;11.724;2024-02-23T07:20:49;0.60;;;0.60;;
3487;SDS011;38546;48.170;11.724;2024-02-23T07:23:20;0.70;;;0.70;;
3487;SDS011;38546;48.170;11.724;2024-02-23T07:25:52;0.90;;;0.90;;
3487;SDS011;38546;48.170;11.724;2024-02-23T07:28:23;0.87;;;0.87;;
3487;SDS011;38546;48.170;11.724;2024-02-23T07:30:54;0.83;;;0.80;;
3487;SDS011;38546;48.170;11.724;2024-02-23T07:33:24;1.43;;;0.70;;
3487;SDS011;38546;48.170;11.724;2024-02-23T07:35:55;0.67;;;0.67;;
3487;SDS011;38546;48.170;11.724;2024-02-23T07:38:26;0.80;;;0.80;;
3487;SDS011;38546;48.170;11.724;2024-02-23T07:40:56;0.70;;;0.70;;
3487;SDS011;38546;48.170;11.724;2024-02-23T07:43:28;0.73;;;0.73;;
3487;SDS011;38546;48.170;11.724;2024-02-23T07:45:59;1.90;;;0.80;;
3487;SDS011;38546;48.170;11.724;2024-02-23T07:48:30;0.60;;;0.60;;
3487;SDS011;38546;48.170;11.724;2024-02-23T07:51:01;0.70;;;0.70;;
3487;SDS011;38546;48.170;11.724;2024-02-23T07:53:33;1.27;;;0.70;;
3487;SDS011;38546;48.170;11.724;2024-02-23T07:56:07;0.60;;;0.60;;
3487;SDS011;38546;48.170;11.724;2024-02-23T07:58:37;0.70;;;0.70;;
3487;SDS011;38546;48.170;11.724;2024-02-23T08:01:08;1.57;;;0.73;;
3487;SDS011;38546;48.170;11.724;2024-02-23T08:03:39;0.70;;;0.70;;
3487;SDS011;38546;48.170;11.724;2024-02-23T08:06:10;0.90;;;0.90;;
3487;SDS011;38546;48.170;11.724;2024-02-23T08:08:42;1.60;;;0.83;;
3487;SDS011;38546;48.170;11.724;2024-02-23T08:11:13;0.93;;;0.93;;
3487;SDS011;38546;48.170;11.724;2024-02-23T08:13:44;1.60;;;0.90;;
3487;SDS011;38546;48.170;11.724;2024-02-23T08:16:18;1.43;;;0.80;;
3487;SDS011;38546;48.170;11.724;2024-02-23T08:18:48;1.43;;;0.60;;
3487;SDS011;38546;48.170;11.724;2024-02-23T08:21:19;0.67;;;0.67;;
3487;SDS011;38546;48.170;11.724;2024-02-23T08:23:50;0.70;;;0.70;;
3487;SDS011;38546;48.170;11.724;2024-02-23T08:26:20;0.97;;;0.80;;
3487;SDS011;38546;48.170;11.724;2024-02-23T08:28:52;0.73;;;0.73;;
3487;SDS011;38546;48.170;11.724;2024-02-23T08:31:22;0.80;;;0.60;;
3487;SDS011;38546;48.170;11.724;2024-02-23T08:33:54;0.80;;;0.70;;
3487;SDS011;38546;48.170;11.724;2024-02-23T08:36:25;0.60;;;0.60;;
3487;SDS011;38546;48.170;11.724;2024-02-23T08:38:55;1.63;;;0.67;;
3487;SDS011;38546;48.170;11.724;2024-02-23T08:41:26;0.90;;;0.70;;
3487;SDS011;38546;48.170;11.724;2024-02-23T08:43:57;1.47;;;0.80;;
3487;SDS011;38546;48.170;11.724;2024-02-23T08:46:27;1.13;;;1.03;;
3487;SDS011;38546;48.170;11.724;2024-02-23T08:48:58;0.73;;;0.73;;
3487;SDS011;38546;48.170;11.724;2024-02-23T08:51:28;0.70;;;0.70;;
3487;SDS011;38546;48.170;11.724;2024-02-23T08:53:59;0.80;;;0.80;;
3487;SDS011;38546;48.170;11.724;2024-02-23T08:56:38;0.60;;;0.60;;
3487;SDS011;38546;48.170;11.724;2024-02-23T08:59:09;0.90;;;0.90;;
3487;SDS011;38546;48.170;11.724;2024-02-23T09:01:40;1.00;;;1.00;;
3487;SDS011;38546;48.170;11.724;2024-02-23T09:04:11;2.50;;;0.70;;
3487;SDS011;38546;48.170;11.724;2024-02-23T09:06:41;0.77;;;0.77;;
3487;SDS011;38546;48.170;11.724;2024-02-23T09:09:12;0.97;;;0.93;;
3487;SDS011;38546;48.170;11.724;2024-02-23T09:11:43;1.20;;;1.10;;
3487;SDS011;38546;48.170;11.724;2024-02-23T09:14:13;1.07;;;1.03;;
3487;SDS011;38546;48.170;11.724;2024-02-23T09:16:44;0.90;;;0.90;;
3487;SDS011;38546;48.170;11.724;2024-02-23T09:19:16;6.90;;;1.30;;
3487;SDS011;38546;48.170;11.724;2024-02-23T09:21:48;1.53;;;0.80;;
3487;SDS011;38546;48.170;11.724;2024-02-23T09:24:19;1.00;;;1.00;;
3487;SDS011;38546;48.170;11.724;2024-02-23T09:26:49;0.80;;;0.80;;
3487;SDS011;38546;48.170;11.724;2024-02-23T09:29:20;3.13;;;1.17;;
3487;SDS011;38546;48.170;11.724;2024-02-23T09:31:51;4.77;;;1.43;;
3487;SDS011;38546;48.170;11.724;2024-02-23T09:34:22;1.27;;;1.00;;
3487;SDS011;38546;48.170;11.724;2024-02-23T09:36:53;0.83;;;0.80;;
3487;SDS011;38546;48.170;11.724;2024-02-23T09:39:24;0.97;;;0.97;;
3487;SDS011;38546;48.170;11.724;2024-02-23T09:41:58;2.70;;;1.13;;
3487;SDS011;38546;48.170;11.724;2024-02-23T09:44:32;1.80;;;0.80;;
3487;SDS011;38546;48.170;11.724;2024-02-23T09:47:04;0.90;;;0.80;;
3487;SDS011;38546;48.170;11.724;2024-02-23T09:49:40;1.10;;;0.67;;
3487;SDS011;38546;48.170;11.724;2024-02-23T09:52:11;2.50;;;1.10;;
3487;SDS011;38546;48.170;11.724;2024-02-23T09:54:42;2.30;;;1.07;;
3487;SDS011;38546;48.170;11.724;2024-02-23T09:57:13;1.03;;;1.03;;
3487;SDS011;38546;48.170;11.724;2024-02-23T09:59:46;2.93;;;0.80;;
3487;SDS011;38546;48.170;11.724;2024-02-23T10:02:21;1.00;;;1.00;;
3487;SDS011;38546;48.170;11.724;2024-02-23T10:04:52;1.20;;;1.03;;
3487;SDS011;38546;48.170;11.724;2024-02-23T10:07:26;1.07;;;1.00;;
3487;SDS011;38546;48.170;11.724;2024-02-23T10:09:56;4.20;;;0.80;;
3487;SDS011;38546;48.170;11.724;2024-02-23T10:12:28;1.47;;;1.00;;
3487;SDS011;38546;48.170;11.724;2024-02-23T10:14:59;1.17;;;0.60;;
3487;SDS011;38546;48.170;11.724;2024-02-23T10:17:30;0.83;;;0.83;;
3487;SDS011;38546;48.170;11.724;2024-02-23T10:20:01;1.60;;;0.73;;
3487;SDS011;38546;48.170;11.724;2024-02-23T10:22:36;2.77;;;0.77;;
3487;SDS011;38546;48.170;11.724;2024-02-23T10:25:06;0.90;;;0.70;;
3487;SDS011;38546;48.170;11.724;2024-02-23T10:27:40;0.77;;;0.77;;
3487;SDS011;38546;48.170;11.724;2024-02-23T10:30:13;0.77;;;0.77;;
3487;SDS011;38546;48.170;11.724;2024-02-23T10:32:45;0.77;;;0.77;;
3487;SDS011;38546;48.170;11.724;2024-02-23T10:35:16;2.53;;;0.90;;
3487;SDS011;38546;48.170;11.724;2024-02-23T10:37:48;0.60;;;0.60;;
3487;SDS011;38546;48.170;11.724;2024-02-23T10:40:22;0.77;;;0.77;;
3487;SDS011;38546;48.170;11.724;2024-02-23T10:42:54;0.70;;;0.70;;
3487;SDS011;38546;48.170;11.724;2024-02-23T10:45:27;2.10;;;0.93;;
3487;SDS011;38546;48.170;11.724;2024-02-23T10:47:58;1.60;;;0.70;;
3487;SDS011;38546;48.170;11.724;2024-02-23T10:50:29;1.77;;;0.93;;
3487;SDS011;38546;48.170;11.724;2024-02-23T10:53:04;3.60;;;1.10;;
3487;SDS011;38546;48.170;11.724;2024-02-23T10:55:38;0.70;;;0.70;;
3487;SDS011;38546;48.170;11.724;2024-02-23T10:58:10;2.30;;;0.80;;
3487;SDS011;38546;48.170;11.724;2024-02-23T11:00:43;1.50;;;0.60;;
3487;SDS011;38546;48.170;11.724;2024-02-23T11:03:15;0.63;;;0.63;;
3487;SDS011;38546;48.170;11.724;2024-02-23T11:05:48;3.30;;;1.13;;
3487;SDS011;38546;48.170;11.724;2024-02-23T11:08:19;1.43;;;0.70;;
3487;SDS011;38546;48.170;11.724;2024-02-23T11:10:50;1.27;;;0.90;;
3487;SDS011;38546;48.170;11.724;2024-02-23T11:13:30;0.77;;;0.70;;
3487;SDS011;38546;48.170;11.724;2024-02-23T11:16:05;0.70;;;0.70;;
3487;SDS011;38546;48.170;11.724;2024-02-23T11:18:39;0.57;;;0.57;;
3487;SDS011;38546;48.170;11.724;2024-02-23T11:21:10;1.17;;;0.77;;
3487;SDS011;38546;48.170;11.724;2024-02-23T11:23:47;1.43;;;0.70;;
3487;SDS011;38546;48.170;11.724;2024-02-23T11:26:19;0.60;;;0.60;;
3487;SDS011;38546;48.170;11.724;2024-02-23T11:28:53;0.53;;;0.53;;
3487;SDS011;38546;48.170;11.724;2024-02-23T11:31:24;0.70;;;0.60;;
3487;SDS011;38546;48.170;11.724;2024-02-23T11:33:59;0.83;;;0.73;;
3487;SDS011;38546;48.170;11.724;2024-02-23T11:36:31;1.90;;;0.80;;
3487;SDS011;38546;48.170;11.724;2024-02-23T11:39:03;0.77;;;0.77;;
3487;SDS011;38546;48.170;11.724;2024-02-23T11:41:35;0.90;;;0.90;;
3487;SDS011;38546;48.170;11.724;2024-02-23T11:44:07;1.10;;;1.00;;
3487;SDS011;38546;48.170;11.724;2024-02-23T11:46:37;0.60;;;0.60;;
3487;SDS011;38546;48.170;11.724;2024-02-23T11:49:08;1.33;;;0.70;;
3487;SDS011;38546;48.170;11.724;2024-02-23T11:51:39;0.73;;;0.60;;
3487;SDS011;38546;48.170;11.724;2024-02-23T11:54:10;1.37;;;0.70;;
3487;SDS011;38546;48.170;11.724;2024-02-23T11:56:41;0.90;;;0.90;;
3487;SDS011;38546;48.170;11.724;2024-02-23T11:59:12;1.23;;;1.17;;
3487;SDS011;38546;48.170;11.724;2024-02-23T12:01:45;1.23;;;0.63;;
3487;SDS011;38546;48.170;11.724;2024-02-23T12:04:17;1.20;;;0.70;;
3487;SDS011;38546;48.170;11.724;2024-02-23T12:06:48;0.87;;;0.87;;
3487;SDS011;38546;48.170;11.724;2024-02-23T12:09:19;2.73;;;0.80;;
3487;SDS011;38546;48.170;11.724;2024-02-23T12:11:49;0.70;;;0.70;;
3487;SDS011;38546;48.170;11.724;2024-02-23T12:14:21;2.00;;;0.97;;
3487;SDS011;38546;48.170;11.724;2024-02-23T12:16:52;0.80;;;0.80;;
3487;SDS011;38546;48.170;11.724;2024-02-23T12:19:23;2.40;;;0.90;;
3487;SDS011;38546;48.170;11.724;2024-02-23T12:21:53;0.73;;;0.70;;
3487;SDS011;38546;48.170;11.724;2024-02-23T12:24:25;0.87;;;0.87;;
3487;SDS011;38546;48.170;11.724;2024-02-23T12:26:57;0.90;;;0.90;;
3487;SDS011;38546;48.170;11.724;2024-02-23T12:29:28;0.80;;;0.80;;
3487;SDS011;38546;48.170;11.724;2024-02-23T12:32:02;1.63;;;1.13;;
3487;SDS011;38546;48.170;11.724;2024-02-23T12:34:36;0.60;;;0.60;;
3487;SDS011;38546;48.170;11.724;2024-02-23T12:37:07;0.50;;;0.50;;
3487;SDS011;38546;48.170;11.724;2024-02-23T12:39:38;0.70;;;0.57;;
3487;SDS011;38546;48.170;11.724;2024-02-23T12:42:09;1.10;;;0.80;;
3487;SDS011;38546;48.170;11.724;2024-02-23T12:44:40;0.70;;;0.70;;
3487;SDS011;38546;48.170;11.724;2024-02-23T12:47:10;2.30;;;0.93;;
3487;SDS011;38546;48.170;11.724;2024-02-23T12:49:41;0.50;;;0.50;;
3487;SDS011;38546;48.170;11.724;2024-02-23T12:52:12;0.70;;;0.70;;
3487;SDS011;38546;48.170;11.724;2024-02-23T12:54:43;1.20;;;0.73;;
3487;SDS011;38546;48.170;11.724;2024-02-23T12:57:13;0.93;;;0.93;;
3487;SDS011;38546;48.170;11.724;2024-02-23T12:59:44;1.30;;;0.70;;
3487;SDS011;38546;48.170;11.724;2024-02-23T13:02:14;0.80;;;0.70;;
3487;SDS011;38546;48.170;11.724;2024-02-23T13:04:45;0.70;;;0.70;;
3487;SDS011;38546;48.170;11.724;2024-02-23T13:07:19;0.60;;;0.60;;
3487;SDS011;38546;48.170;11.724;2024-02-23T13:09:50;1.17;;;0.70;;
3487;SDS011;38546;48.170;11.724;2024-02-23T13:12:20;0.83;;;0.83;;
3487;SDS011;38546;48.170;11.724;2024-02-23T13:14:51;0.63;;;0.63;;
3487;SDS011;38546;48.170;11.724;2024-02-23T13:17:22;1.57;;;0.60;;
3487;SDS011;38546;48.170;11.724;2024-02-23T13:19:53;0.60;;;0.60;;
3487;SDS011;38546;48.170;11.724;2024-02-23T13:22:23;1.23;;;0.60;;
3487;SDS011;38546;48.170;11.724;2024-02-23T13:24:54;0.60;;;0.60;;
3487;SDS011;38546;48.170;11.724;2024-02-23T13:27:24;1.07;;;0.60;;
3487;SDS011;38546;48.170;11.724;2024-02-23T13:29:55;1.80;;;1.00;;
3487;SDS011;38546;48.170;11.724;2024-02-23T13:32:26;2.60;;;0.80;;
3487;SDS011;38546;48.170;11.724;2024-02-23T13:34:57;0.80;;;0.60;;
3487;SDS011;38546;48.170;11.724;2024-02-23T13:37:28;1.20;;;1.10;;
3487;SDS011;38546;48.170;11.724;2024-02-23T13:39:59;0.60;;;0.60;;
3487;SDS011;38546;48.170;11.724;2024-02-23T13:42:30;1.93;;;0.93;;
3487;SDS011;38546;48.170;11.724;2024-02-23T13:45:01;0.70;;;0.70;;
3487;SDS011;38546;48.170;11.724;2024-02-23T13:47:32;0.80;;;0.80;;
3487;SDS011;38546;48.170;11.724;2024-02-23T13:50:02;1.23;;;0.63;;
3487;SDS011;38546;48.170;11.724;2024-02-23T13:52:34;0.60;;;0.57;;
3487;SDS011;38546;48.170;11.724;2024-02-23T13:55:05;0.60;;;0.60;;
3487;SDS011;38546;48.170;11.724;2024-02-23T13:57:37;0.97;;;0.93;;
3487;SDS011;38546;48.170;11.724;2024-02-23T14:00:07;0.60;;;0.60;;
3487;SDS011;38546;48.170;11.724;2024-02-23T14:02:42;1.20;;;0.60;;
3487;SDS011;38546;48.170;11.724;2024-02-23T14:05:14;0.80;;;0.80;;
3487;SDS011;38546;48.170;11.724;2024-02-23T14:07:48;0.93;;;0.80;;
3487;SDS011;38546;48.170;11.724;2024-02-23T14:10:18;0.60;;;0.60;;
3487;SDS011;38546;48.170;11.724;2024-02-23T14:12:49;0.77;;;0.77;;
3487;SDS011;38546;48.170;11.724;2024-02-23T14:15:20;0.70;;;0.70;;
3487;SDS011;38546;48.170;11.724;2024-02-23T14:17:51;0.90;;;0.90;;
3487;SDS011;38546;48.170;11.724;2024-02-23T14:20:21;0.83;;;0.80;;
3487;SDS011;38546;48.170;11.724;2024-02-23T14:22:52;0.90;;;0.90;;
3487;SDS011;38546;48.170;11.724;2024-02-23T14:25:23;0.90;;;0.90;;
3487;SDS011;38546;48.170;11.724;2024-02-23T14:27:53;0.60;;;0.60;;
3487;SDS011;38546;48.170;11.724;2024-02-23T14:30:25;0.80;;;0.80;;
3487;SDS011;38546;48.170;11.724;2024-02-23T14:32:56;1.43;;;0.77;;
3487;SDS011;38546;48.170;11.724;2024-02-23T14:35:26;1.60;;;0.80;;
3487;SDS011;38546;48.170;11.724;2024-02-23T14:37:57;1.83;;;0.83;;
3487;SDS011;38546;48.170;11.724;2024-02-23T14:40:28;2.30;;;0.70;;
3487;SDS011;38546;48.170;11.724;2024-02-23T14:42:58;0.87;;;0.70;;
3487;SDS011;38546;48.170;11.724;2024-02-23T14:45:29;5.20;;;1.20;;
3487;SDS011;38546;48.170;11.724;2024-02-23T14:48:00;2.13;;;0.60;;
3487;SDS011;38546;48.170;11.724;2024-02-23T14:50:30;0.70;;;0.70;;
3487;SDS011;38546;48.170;11.724;2024-02-23T14:53:01;1.50;;;0.70;;
3487;SDS011;38546;48.170;11.724;2024-02-23T14:55:32;0.70;;;0.70;;
3487;SDS011;38546;48.170;11.724;2024-02-23T14:58:02;2.33;;;0.90;;
3487;SDS011;38546;48.170;11.724;2024-02-23T15:00:33;0.80;;;0.80;;
3487;SDS011;38546;48.170;11.724;2024-02-23T15:03:04;0.80;;;0.80;;
3487;SDS011;38546;48.170;11.724;2024-02-23T15:05:35;0.50;;;0.50;;
3487;SDS011;38546;48.170;11.724;2024-02-23T15:08:06;0.90;;;0.57;;
3487;SDS011;38546;48.170;11.724;2024-02-23T15:10:37;1.00;;;0.60;;
3487;SDS011;38546;48.170;11.724;2024-02-23T15:13:08;0.60;;;0.60;;